sensor_id;sensor_type;location;lat;lon;timestamp;P1;durP1;ratioP1;P2;durP2;ratioP2
9306;SDS011;4691;47.612;7.610;2023-05-02T00:00:31;20.52;;;15.40;;
9306;SDS011;4691;47.612;7.610;2023-05-02T00:02:57;19.60;;;13.90;;
9306;SDS011;4691;47.612;7.610;2023-05-02T00:05:23;23.92;;;14.60;;
9306;SDS011;4691;47.612;7.610;2023-05-02T00:07:50;25.55;;;14.65;;
9306;SDS011;4691;47.612;7.610;2023-05-02T00:10:16;19.83;;;13.43;;
9306;SDS011;4691;47.612;7.610;2023-05-02T00:12:41;19.25;;;14.32;;
9306;SDS011;4691;47.612;7.610;2023-05-02T00:15:07;21.25;;;14.73;;
9306;SDS011;4691;47.612;7.610;2023-05-02T00:17:32;19.98;;;14.98;;
9306;SDS011;4691;47.612;7.610;2023-05-02T00:19:58;20.52;;;14.70;;
9306;SDS011;4691;47.612;7.610;2023-05-02T00:22:23;20.90;;;14.70;;
9306;SDS011;4691;47.612;7.610;2023-05-02T00:24:48;18.35;;;13.02;;
9306;SDS011;4691;47.612;7.610;2023-05-02T00:27:13;22.70;;;14.75;;
9306;SDS011;4691;47.612;7.610;2023-05-02T00:29:39;22.48;;;14.55;;
9306;SDS011;4691;47.612;7.610;2023-05-02T00:32:05;22.38;;;13.27;;
9306;SDS011;4691;47.612;7.610;2023-05-02T00:34:31;21.90;;;15.50;;
9306;SDS011;4691;47.612;7.610;2023-05-02T00:36:56;22.65;;;15.00;;
9306;SDS011;4691;47.612;7.610;2023-05-02T00:39:22;24.60;;;15.95;;
9306;SDS011;4691;47.612;7.610;2023-05-02T00:41:47;22.70;;;15.73;;
9306;SDS011;4691;47.612;7.610;2023-05-02T00:44:12;24.70;;;15.70;;
9306;SDS011;4691;47.612;7.610;2023-05-02T00:46:38;25.52;;;16.15;;
9306;SDS011;4691;47.612;7.610;2023-05-02T00:49:03;23.33;;;16.35;;
9306;SDS011;4691;47.612;7.610;2023-05-02T00:51:29;23.17;;;15.45;;
9306;SDS011;4691;47.612;7.610;2023-05-02T00:53:54;20.85;;;14.75;;
9306;SDS011;4691;47.612;7.610;2023-05-02T00:56:21;20.70;;;15.25;;
9306;SDS011;4691;47.612;7.610;2023-05-02T00:58:47;24.52;;;15.20;;
9306;SDS011;4691;47.612;7.610;2023-05-02T01:03:40;23.42;;;15.20;;
9306;SDS011;4691;47.612;7.610;2023-05-02T01:06:22;23.17;;;15.05;;
9306;SDS011;4691;47.612;7.610;2023-05-02T01:08:53;22.02;;;14.73;;
9306;SDS011;4691;47.612;7.610;2023-05-02T01:11:38;20.60;;;14.07;;
9306;SDS011;4691;47.612;7.610;2023-05-02T01:14:12;18.83;;;13.48;;
9306;SDS011;4691;47.612;7.610;2023-05-02T01:16:38;19.20;;;13.35;;
9306;SDS011;4691;47.612;7.610;2023-05-02T01:19:28;20.02;;;13.43;;
9306;SDS011;4691;47.612;7.610;2023-05-02T01:21:58;24.83;;;14.20;;
9306;SDS011;4691;47.612;7.610;2023-05-02T01:27:35;25.15;;;14.27;;
9306;SDS011;4691;47.612;7.610;2023-05-02T01:30:07;20.63;;;14.48;;
9306;SDS011;4691;47.612;7.610;2023-05-02T01:32:36;18.73;;;13.48;;
9306;SDS011;4691;47.612;7.610;2023-05-02T01:35:03;18.73;;;13.82;;
9306;SDS011;4691;47.612;7.610;2023-05-02T01:37:30;20.40;;;14.32;;
9306;SDS011;4691;47.612;7.610;2023-05-02T01:39:57;21.77;;;13.52;;
9306;SDS011;4691;47.612;7.610;2023-05-02T01:42:24;19.13;;;14.05;;
9306;SDS011;4691;47.612;7.610;2023-05-02T01:44:51;20.10;;;14.00;;
9306;SDS011;4691;47.612;7.610;2023-05-02T01:47:20;19.25;;;13.65;;
9306;SDS011;4691;47.612;7.610;2023-05-02T01:49:48;21.48;;;14.25;;
9306;SDS011;4691;47.612;7.610;2023-05-02T01:52:13;24.15;;;15.07;;
9306;SDS011;4691;47.612;7.610;2023-05-02T01:54:40;20.92;;;14.57;;
9306;SDS011;4691;47.612;7.610;2023-05-02T01:57:07;21.70;;;15.13;;
9306;SDS011;4691;47.612;7.610;2023-05-02T01:59:35;20.60;;;14.55;;
9306;SDS011;4691;47.612;7.610;2023-05-02T02:02:01;24.10;;;14.93;;
9306;SDS011;4691;47.612;7.610;2023-05-02T02:04:29;21.92;;;15.13;;
9306;SDS011;4691;47.612;7.610;2023-05-02T02:06:59;23.90;;;15.32;;
9306;SDS011;4691;47.612;7.610;2023-05-02T02:09:27;20.13;;;14.02;;
9306;SDS011;4691;47.612;7.610;2023-05-02T02:11:56;21.73;;;14.13;;
9306;SDS011;4691;47.612;7.610;2023-05-02T02:14:33;21.50;;;14.25;;
9306;SDS011;4691;47.612;7.610;2023-05-02T02:19:29;22.95;;;14.25;;
9306;SDS011;4691;47.612;7.610;2023-05-02T02:21:57;23.42;;;14.73;;
9306;SDS011;4691;47.612;7.610;2023-05-02T02:24:23;23.85;;;14.68;;
9306;SDS011;4691;47.612;7.610;2023-05-02T02:26:50;22.30;;;15.23;;
9306;SDS011;4691;47.612;7.610;2023-05-02T02:29:15;24.13;;;14.27;;
9306;SDS011;4691;47.612;7.610;2023-05-02T02:31:41;23.50;;;14.95;;
9306;SDS011;4691;47.612;7.610;2023-05-02T02:34:06;22.70;;;15.30;;
9306;SDS011;4691;47.612;7.610;2023-05-02T02:42:02;23.00;;;15.52;;
9306;SDS011;4691;47.612;7.610;2023-05-02T02:44:51;24.00;;;15.68;;
9306;SDS011;4691;47.612;7.610;2023-05-02T02:47:26;20.58;;;14.45;;
9306;SDS011;4691;47.612;7.610;2023-05-02T02:58:29;24.30;;;14.65;;
9306;SDS011;4691;47.612;7.610;2023-05-02T03:01:08;20.52;;;13.80;;
9306;SDS011;4691;47.612;7.610;2023-05-02T03:03:39;19.55;;;13.90;;
9306;SDS011;4691;47.612;7.610;2023-05-02T03:06:07;20.08;;;13.98;;
9306;SDS011;4691;47.612;7.610;2023-05-02T03:08:39;19.30;;;13.48;;
9306;SDS011;4691;47.612;7.610;2023-05-02T03:11:05;22.77;;;13.63;;
9306;SDS011;4691;47.612;7.610;2023-05-02T03:13:30;23.50;;;13.70;;
9306;SDS011;4691;47.612;7.610;2023-05-02T03:18:24;22.50;;;13.30;;
9306;SDS011;4691;47.612;7.610;2023-05-02T03:20:50;19.98;;;13.20;;
9306;SDS011;4691;47.612;7.610;2023-05-02T03:23:15;20.77;;;13.15;;
9306;SDS011;4691;47.612;7.610;2023-05-02T03:25:40;20.98;;;13.68;;
9306;SDS011;4691;47.612;7.610;2023-05-02T03:28:05;21.30;;;13.23;;
9306;SDS011;4691;47.612;7.610;2023-05-02T03:30:31;21.15;;;14.13;;
9306;SDS011;4691;47.612;7.610;2023-05-02T03:32:56;19.58;;;13.38;;
9306;SDS011;4691;47.612;7.610;2023-05-02T03:35:21;18.35;;;12.98;;
9306;SDS011;4691;47.612;7.610;2023-05-02T03:37:47;19.05;;;13.70;;
9306;SDS011;4691;47.612;7.610;2023-05-02T03:40:12;23.33;;;13.50;;
9306;SDS011;4691;47.612;7.610;2023-05-02T03:42:37;19.08;;;13.43;;
9306;SDS011;4691;47.612;7.610;2023-05-02T03:45:06;23.30;;;13.55;;
9306;SDS011;4691;47.612;7.610;2023-05-02T03:47:32;19.30;;;13.48;;
9306;SDS011;4691;47.612;7.610;2023-05-02T03:49:58;19.75;;;12.82;;
9306;SDS011;4691;47.612;7.610;2023-05-02T03:52:23;24.70;;;14.00;;
9306;SDS011;4691;47.612;7.610;2023-05-02T03:54:49;20.48;;;13.98;;
9306;SDS011;4691;47.612;7.610;2023-05-02T03:57:15;23.85;;;14.13;;
9306;SDS011;4691;47.612;7.610;2023-05-02T03:59:41;21.38;;;13.35;;
9306;SDS011;4691;47.612;7.610;2023-05-02T04:02:09;21.02;;;13.95;;
9306;SDS011;4691;47.612;7.610;2023-05-02T04:04:35;24.27;;;14.13;;
9306;SDS011;4691;47.612;7.610;2023-05-02T04:07:00;22.38;;;14.90;;
9306;SDS011;4691;47.612;7.610;2023-05-02T04:09:26;19.92;;;14.60;;
9306;SDS011;4691;47.612;7.610;2023-05-02T04:11:51;24.48;;;14.80;;
9306;SDS011;4691;47.612;7.610;2023-05-02T04:14:17;24.45;;;14.32;;
9306;SDS011;4691;47.612;7.610;2023-05-02T04:16:46;20.85;;;14.52;;
9306;SDS011;4691;47.612;7.610;2023-05-02T04:19:17;22.45;;;15.15;;
9306;SDS011;4691;47.612;7.610;2023-05-02T04:21:43;20.60;;;14.40;;
9306;SDS011;4691;47.612;7.610;2023-05-02T04:24:09;20.80;;;14.50;;
9306;SDS011;4691;47.612;7.610;2023-05-02T04:26:34;28.27;;;16.77;;
9306;SDS011;4691;47.612;7.610;2023-05-02T04:29:00;26.25;;;15.93;;
9306;SDS011;4691;47.612;7.610;2023-05-02T04:31:25;22.70;;;15.05;;
9306;SDS011;4691;47.612;7.610;2023-05-02T04:33:51;24.67;;;15.50;;
9306;SDS011;4691;47.612;7.610;2023-05-02T04:36:16;27.63;;;15.70;;
9306;SDS011;4691;47.612;7.610;2023-05-02T04:38:43;21.77;;;15.60;;
9306;SDS011;4691;47.612;7.610;2023-05-02T04:41:08;23.80;;;15.57;;
9306;SDS011;4691;47.612;7.610;2023-05-02T04:43:34;23.70;;;15.85;;
9306;SDS011;4691;47.612;7.610;2023-05-02T04:45:59;23.02;;;15.52;;
9306;SDS011;4691;47.612;7.610;2023-05-02T04:48:24;25.63;;;16.15;;
9306;SDS011;4691;47.612;7.610;2023-05-02T04:50:51;23.77;;;15.43;;
9306;SDS011;4691;47.612;7.610;2023-05-02T04:53:17;24.05;;;15.88;;
9306;SDS011;4691;47.612;7.610;2023-05-02T04:55:44;24.80;;;15.82;;
9306;SDS011;4691;47.612;7.610;2023-05-02T04:58:09;27.20;;;17.20;;
9306;SDS011;4691;47.612;7.610;2023-05-02T05:00:34;25.50;;;16.83;;
9306;SDS011;4691;47.612;7.610;2023-05-02T05:03:00;27.60;;;16.02;;
9306;SDS011;4691;47.612;7.610;2023-05-02T05:05:25;24.48;;;15.57;;
9306;SDS011;4691;47.612;7.610;2023-05-02T05:07:50;26.35;;;16.52;;
9306;SDS011;4691;47.612;7.610;2023-05-02T05:10:16;24.90;;;15.48;;
9306;SDS011;4691;47.612;7.610;2023-05-02T05:12:41;26.27;;;16.10;;
9306;SDS011;4691;47.612;7.610;2023-05-02T05:15:07;22.80;;;15.13;;
9306;SDS011;4691;47.612;7.610;2023-05-02T05:17:32;28.33;;;15.45;;
9306;SDS011;4691;47.612;7.610;2023-05-02T05:19:58;25.33;;;16.58;;
9306;SDS011;4691;47.612;7.610;2023-05-02T05:22:23;27.05;;;16.50;;
9306;SDS011;4691;47.612;7.610;2023-05-02T05:24:52;26.75;;;16.48;;
9306;SDS011;4691;47.612;7.610;2023-05-02T05:27:18;24.90;;;15.35;;
9306;SDS011;4691;47.612;7.610;2023-05-02T05:29:43;29.38;;;15.40;;
9306;SDS011;4691;47.612;7.610;2023-05-02T05:32:09;24.10;;;16.10;;
9306;SDS011;4691;47.612;7.610;2023-05-02T05:34:34;24.30;;;16.63;;
9306;SDS011;4691;47.612;7.610;2023-05-02T05:37:00;25.40;;;15.95;;
9306;SDS011;4691;47.612;7.610;2023-05-02T05:39:25;31.20;;;16.95;;
9306;SDS011;4691;47.612;7.610;2023-05-02T05:41:50;24.15;;;16.45;;
9306;SDS011;4691;47.612;7.610;2023-05-02T05:44:16;28.35;;;19.20;;
9306;SDS011;4691;47.612;7.610;2023-05-02T05:46:42;27.65;;;18.30;;
9306;SDS011;4691;47.612;7.610;2023-05-02T05:49:07;31.02;;;19.13;;
9306;SDS011;4691;47.612;7.610;2023-05-02T05:51:32;28.35;;;18.65;;
9306;SDS011;4691;47.612;7.610;2023-05-02T05:53:57;26.83;;;18.70;;
9306;SDS011;4691;47.612;7.610;2023-05-02T05:56:23;28.17;;;18.80;;
9306;SDS011;4691;47.612;7.610;2023-05-02T05:58:48;29.65;;;18.95;;
9306;SDS011;4691;47.612;7.610;2023-05-02T06:01:13;31.30;;;18.67;;
9306;SDS011;4691;47.612;7.610;2023-05-02T06:03:39;29.83;;;19.35;;
9306;SDS011;4691;47.612;7.610;2023-05-02T06:06:04;27.83;;;17.88;;
9306;SDS011;4691;47.612;7.610;2023-05-02T06:08:30;29.95;;;19.73;;
9306;SDS011;4691;47.612;7.610;2023-05-02T06:10:55;25.38;;;18.38;;
9306;SDS011;4691;47.612;7.610;2023-05-02T06:13:20;43.47;;;20.85;;
9306;SDS011;4691;47.612;7.610;2023-05-02T06:15:46;25.90;;;17.67;;
9306;SDS011;4691;47.612;7.610;2023-05-02T06:18:11;27.48;;;18.58;;
9306;SDS011;4691;47.612;7.610;2023-05-02T06:20:37;28.50;;;18.52;;
9306;SDS011;4691;47.612;7.610;2023-05-02T06:23:02;30.23;;;18.90;;
9306;SDS011;4691;47.612;7.610;2023-05-02T06:25:28;27.48;;;18.20;;
9306;SDS011;4691;47.612;7.610;2023-05-02T06:27:53;29.27;;;18.73;;
9306;SDS011;4691;47.612;7.610;2023-05-02T06:30:18;26.90;;;17.15;;
9306;SDS011;4691;47.612;7.610;2023-05-02T06:32:44;27.77;;;17.23;;
9306;SDS011;4691;47.612;7.610;2023-05-02T06:35:09;29.23;;;18.63;;
9306;SDS011;4691;47.612;7.610;2023-05-02T06:37:35;30.33;;;19.08;;
9306;SDS011;4691;47.612;7.610;2023-05-02T06:40:01;24.60;;;17.08;;
9306;SDS011;4691;47.612;7.610;2023-05-02T06:42:27;26.90;;;17.38;;
9306;SDS011;4691;47.612;7.610;2023-05-02T06:44:53;24.38;;;17.50;;
9306;SDS011;4691;47.612;7.610;2023-05-02T06:47:19;21.25;;;16.10;;
9306;SDS011;4691;47.612;7.610;2023-05-02T06:49:45;24.77;;;15.25;;
9306;SDS011;4691;47.612;7.610;2023-05-02T06:52:11;22.50;;;15.38;;
9306;SDS011;4691;47.612;7.610;2023-05-02T06:54:36;26.58;;;16.23;;
9306;SDS011;4691;47.612;7.610;2023-05-02T06:57:02;20.08;;;14.73;;
9306;SDS011;4691;47.612;7.610;2023-05-02T06:59:28;22.52;;;14.52;;
9306;SDS011;4691;47.612;7.610;2023-05-02T07:01:53;21.95;;;14.57;;
9306;SDS011;4691;47.612;7.610;2023-05-02T07:04:18;22.00;;;14.32;;
9306;SDS011;4691;47.612;7.610;2023-05-02T07:06:44;21.92;;;15.30;;
9306;SDS011;4691;47.612;7.610;2023-05-02T07:09:09;18.92;;;14.07;;
9306;SDS011;4691;47.612;7.610;2023-05-02T07:11:35;19.25;;;13.60;;
9306;SDS011;4691;47.612;7.610;2023-05-02T07:14:00;20.50;;;14.05;;
9306;SDS011;4691;47.612;7.610;2023-05-02T07:16:26;19.80;;;14.30;;
9306;SDS011;4691;47.612;7.610;2023-05-02T07:18:52;19.42;;;14.25;;
9306;SDS011;4691;47.612;7.610;2023-05-02T07:21:17;20.30;;;13.95;;
9306;SDS011;4691;47.612;7.610;2023-05-02T07:23:43;21.80;;;13.95;;
9306;SDS011;4691;47.612;7.610;2023-05-02T07:26:08;19.83;;;14.50;;
9306;SDS011;4691;47.612;7.610;2023-05-02T07:28:33;22.98;;;13.85;;
9306;SDS011;4691;47.612;7.610;2023-05-02T07:30:59;23.45;;;14.00;;
9306;SDS011;4691;47.612;7.610;2023-05-02T07:33:24;20.27;;;13.98;;
9306;SDS011;4691;47.612;7.610;2023-05-02T07:35:50;23.27;;;14.07;;
9306;SDS011;4691;47.612;7.610;2023-05-02T07:38:15;22.02;;;14.10;;
9306;SDS011;4691;47.612;7.610;2023-05-02T07:40:41;23.13;;;14.48;;
9306;SDS011;4691;47.612;7.610;2023-05-02T07:43:07;20.33;;;14.40;;
9306;SDS011;4691;47.612;7.610;2023-05-02T07:45:32;19.80;;;14.43;;
9306;SDS011;4691;47.612;7.610;2023-05-02T07:47:59;18.77;;;14.18;;
9306;SDS011;4691;47.612;7.610;2023-05-02T07:50:24;22.02;;;14.40;;
9306;SDS011;4691;47.612;7.610;2023-05-02T07:52:51;23.02;;;14.98;;
9306;SDS011;4691;47.612;7.610;2023-05-02T07:55:16;23.35;;;15.05;;
9306;SDS011;4691;47.612;7.610;2023-05-02T07:57:44;25.13;;;15.75;;
9306;SDS011;4691;47.612;7.610;2023-05-02T08:00:09;22.15;;;14.38;;
9306;SDS011;4691;47.612;7.610;2023-05-02T08:02:35;23.00;;;16.20;;
9306;SDS011;4691;47.612;7.610;2023-05-02T08:05:01;23.38;;;15.93;;
9306;SDS011;4691;47.612;7.610;2023-05-02T08:07:27;24.02;;;14.93;;
9306;SDS011;4691;47.612;7.610;2023-05-02T08:09:52;24.13;;;15.27;;
9306;SDS011;4691;47.612;7.610;2023-05-02T08:12:17;24.35;;;17.42;;
9306;SDS011;4691;47.612;7.610;2023-05-02T08:14:43;27.23;;;16.73;;
9306;SDS011;4691;47.612;7.610;2023-05-02T08:17:08;21.65;;;16.23;;
9306;SDS011;4691;47.612;7.610;2023-05-02T08:19:34;28.08;;;17.77;;
9306;SDS011;4691;47.612;7.610;2023-05-02T08:21:59;26.80;;;18.45;;
9306;SDS011;4691;47.612;7.610;2023-05-02T08:24:24;28.13;;;18.60;;
9306;SDS011;4691;47.612;7.610;2023-05-02T08:26:50;26.02;;;17.88;;
9306;SDS011;4691;47.612;7.610;2023-05-02T08:29:15;25.88;;;18.02;;
9306;SDS011;4691;47.612;7.610;2023-05-02T08:31:40;34.08;;;23.05;;
9306;SDS011;4691;47.612;7.610;2023-05-02T08:34:06;40.55;;;23.75;;
9306;SDS011;4691;47.612;7.610;2023-05-02T08:36:31;32.80;;;22.30;;
9306;SDS011;4691;47.612;7.610;2023-05-02T08:38:56;34.53;;;22.55;;
9306;SDS011;4691;47.612;7.610;2023-05-02T08:41:22;39.40;;;22.42;;
9306;SDS011;4691;47.612;7.610;2023-05-02T08:43:48;32.05;;;22.27;;
9306;SDS011;4691;47.612;7.610;2023-05-02T08:46:14;32.58;;;22.13;;
9306;SDS011;4691;47.612;7.610;2023-05-02T08:48:41;36.72;;;23.92;;
9306;SDS011;4691;47.612;7.610;2023-05-02T08:51:09;33.78;;;21.80;;
9306;SDS011;4691;47.612;7.610;2023-05-02T08:53:36;33.00;;;22.58;;
9306;SDS011;4691;47.612;7.610;2023-05-02T08:56:03;33.28;;;22.60;;
9306;SDS011;4691;47.612;7.610;2023-05-02T08:58:30;32.47;;;22.30;;
9306;SDS011;4691;47.612;7.610;2023-05-02T09:00:56;34.58;;;22.80;;
9306;SDS011;4691;47.612;7.610;2023-05-02T09:05:57;40.58;;;24.38;;
9306;SDS011;4691;47.612;7.610;2023-05-02T09:08:30;38.28;;;24.88;;
9306;SDS011;4691;47.612;7.610;2023-05-02T09:10:56;36.33;;;22.60;;
9306;SDS011;4691;47.612;7.610;2023-05-02T09:16:01;39.05;;;25.27;;
9306;SDS011;4691;47.612;7.610;2023-05-02T09:18:29;39.22;;;26.25;;
9306;SDS011;4691;47.612;7.610;2023-05-02T09:20:59;38.10;;;25.80;;
9306;SDS011;4691;47.612;7.610;2023-05-02T09:23:59;35.13;;;24.15;;
9306;SDS011;4691;47.612;7.610;2023-05-02T09:29:10;32.95;;;23.45;;
9306;SDS011;4691;47.612;7.610;2023-05-02T09:31:34;32.17;;;23.90;;
9306;SDS011;4691;47.612;7.610;2023-05-02T09:34:22;29.70;;;22.50;;
9306;SDS011;4691;47.612;7.610;2023-05-02T09:36:48;27.60;;;20.45;;
9306;SDS011;4691;47.612;7.610;2023-05-02T09:39:16;28.58;;;20.23;;
9306;SDS011;4691;47.612;7.610;2023-05-02T09:41:45;29.75;;;20.80;;
9306;SDS011;4691;47.612;7.610;2023-05-02T09:44:12;27.35;;;20.30;;
9306;SDS011;4691;47.612;7.610;2023-05-02T09:46:39;27.17;;;19.15;;
9306;SDS011;4691;47.612;7.610;2023-05-02T09:49:06;26.58;;;20.25;;
9306;SDS011;4691;47.612;7.610;2023-05-02T09:51:32;24.48;;;18.55;;
9306;SDS011;4691;47.612;7.610;2023-05-02T09:53:57;24.42;;;18.35;;
9306;SDS011;4691;47.612;7.610;2023-05-02T09:56:22;26.30;;;18.13;;
9306;SDS011;4691;47.612;7.610;2023-05-02T09:58:48;23.63;;;18.92;;
9306;SDS011;4691;47.612;7.610;2023-05-02T10:01:17;19.00;;;15.52;;
9306;SDS011;4691;47.612;7.610;2023-05-02T10:03:46;17.63;;;14.43;;
9306;SDS011;4691;47.612;7.610;2023-05-02T10:08:38;20.45;;;16.20;;
9306;SDS011;4691;47.612;7.610;2023-05-02T10:11:06;24.27;;;17.70;;
9306;SDS011;4691;47.612;7.610;2023-05-02T10:13:33;21.58;;;16.70;;
9306;SDS011;4691;47.612;7.610;2023-05-02T10:16:01;20.58;;;16.52;;
9306;SDS011;4691;47.612;7.610;2023-05-02T10:18:39;20.00;;;16.45;;
9306;SDS011;4691;47.612;7.610;2023-05-02T10:21:27;18.60;;;13.95;;
9306;SDS011;4691;47.612;7.610;2023-05-02T10:23:52;19.90;;;15.05;;
9306;SDS011;4691;47.612;7.610;2023-05-02T10:26:18;20.40;;;13.73;;
9306;SDS011;4691;47.612;7.610;2023-05-02T10:28:47;18.00;;;12.95;;
9306;SDS011;4691;47.612;7.610;2023-05-02T10:31:13;18.58;;;14.52;;
9306;SDS011;4691;47.612;7.610;2023-05-02T10:33:40;19.33;;;13.95;;
9306;SDS011;4691;47.612;7.610;2023-05-02T10:36:06;18.10;;;13.82;;
9306;SDS011;4691;47.612;7.610;2023-05-02T10:38:34;16.85;;;14.30;;
9306;SDS011;4691;47.612;7.610;2023-05-02T10:41:01;16.40;;;13.65;;
9306;SDS011;4691;47.612;7.610;2023-05-02T10:43:32;19.77;;;14.27;;
9306;SDS011;4691;47.612;7.610;2023-05-02T10:45:59;19.58;;;13.18;;
9306;SDS011;4691;47.612;7.610;2023-05-02T10:48:27;15.35;;;13.00;;
9306;SDS011;4691;47.612;7.610;2023-05-02T10:50:54;18.05;;;15.02;;
9306;SDS011;4691;47.612;7.610;2023-05-02T10:53:23;19.02;;;15.23;;
9306;SDS011;4691;47.612;7.610;2023-05-02T10:58:50;20.15;;;15.18;;
9306;SDS011;4691;47.612;7.610;2023-05-02T11:04:07;17.92;;;15.30;;
9306;SDS011;4691;47.612;7.610;2023-05-02T11:06:34;17.58;;;14.98;;
9306;SDS011;4691;47.612;7.610;2023-05-02T11:11:45;16.83;;;14.82;;
9306;SDS011;4691;47.612;7.610;2023-05-02T11:14:41;17.08;;;14.38;;
9306;SDS011;4691;47.612;7.610;2023-05-02T11:19:26;16.77;;;14.97;;
9306;SDS011;4691;47.612;7.610;2023-05-02T11:21:52;17.17;;;15.38;;
9306;SDS011;4691;47.612;7.610;2023-05-02T11:33:09;17.38;;;15.05;;
9306;SDS011;4691;47.612;7.610;2023-05-02T11:35:21;16.67;;;14.68;;
9306;SDS011;4691;47.612;7.610;2023-05-02T11:37:57;22.08;;;16.58;;
9306;SDS011;4691;47.612;7.610;2023-05-02T11:40:24;17.00;;;15.07;;
9306;SDS011;4691;47.612;7.610;2023-05-02T11:42:51;18.27;;;15.32;;
9306;SDS011;4691;47.612;7.610;2023-05-02T11:45:17;19.20;;;15.82;;
9306;SDS011;4691;47.612;7.610;2023-05-02T11:47:49;18.83;;;15.23;;
9306;SDS011;4691;47.612;7.610;2023-05-02T11:50:15;18.45;;;16.02;;
9306;SDS011;4691;47.612;7.610;2023-05-02T11:52:43;19.30;;;15.30;;
9306;SDS011;4691;47.612;7.610;2023-05-02T11:55:10;19.45;;;15.80;;
9306;SDS011;4691;47.612;7.610;2023-05-02T11:57:37;21.23;;;14.48;;
9306;SDS011;4691;47.612;7.610;2023-05-02T12:00:03;21.88;;;17.70;;
9306;SDS011;4691;47.612;7.610;2023-05-02T12:02:40;22.35;;;16.75;;
9306;SDS011;4691;47.612;7.610;2023-05-02T12:05:08;18.77;;;15.35;;
9306;SDS011;4691;47.612;7.610;2023-05-02T12:07:37;20.83;;;15.60;;
9306;SDS011;4691;47.612;7.610;2023-05-02T12:10:09;16.13;;;13.40;;
9306;SDS011;4691;47.612;7.610;2023-05-02T12:12:35;17.20;;;13.75;;
9306;SDS011;4691;47.612;7.610;2023-05-02T12:15:02;18.50;;;15.40;;
9306;SDS011;4691;47.612;7.610;2023-05-02T12:17:32;15.57;;;13.73;;
9306;SDS011;4691;47.612;7.610;2023-05-02T12:20:03;15.65;;;13.45;;
9306;SDS011;4691;47.612;7.610;2023-05-02T12:22:30;18.20;;;14.05;;
9306;SDS011;4691;47.612;7.610;2023-05-02T12:24:56;18.13;;;14.23;;
9306;SDS011;4691;47.612;7.610;2023-05-02T12:27:22;16.50;;;13.07;;
9306;SDS011;4691;47.612;7.610;2023-05-02T12:29:47;17.35;;;13.32;;
9306;SDS011;4691;47.612;7.610;2023-05-02T12:32:13;14.63;;;11.73;;
9306;SDS011;4691;47.612;7.610;2023-05-02T12:34:40;14.23;;;12.35;;
9306;SDS011;4691;47.612;7.610;2023-05-02T12:37:06;15.70;;;12.77;;
9306;SDS011;4691;47.612;7.610;2023-05-02T12:39:33;15.05;;;12.18;;
9306;SDS011;4691;47.612;7.610;2023-05-02T12:41:59;15.40;;;12.85;;
9306;SDS011;4691;47.612;7.610;2023-05-02T12:44:37;16.23;;;13.10;;
9306;SDS011;4691;47.612;7.610;2023-05-02T12:47:03;14.73;;;11.73;;
9306;SDS011;4691;47.612;7.610;2023-05-02T12:49:29;21.02;;;13.50;;
9306;SDS011;4691;47.612;7.610;2023-05-02T12:51:55;18.70;;;16.02;;
9306;SDS011;4691;47.612;7.610;2023-05-02T12:54:20;16.65;;;11.65;;
9306;SDS011;4691;47.612;7.610;2023-05-02T12:56:46;13.55;;;11.50;;
9306;SDS011;4691;47.612;7.610;2023-05-02T13:01:51;16.03;;;11.40;;
9306;SDS011;4691;47.612;7.610;2023-05-02T13:04:16;13.20;;;10.95;;
9306;SDS011;4691;47.612;7.610;2023-05-02T13:06:41;12.73;;;9.73;;
9306;SDS011;4691;47.612;7.610;2023-05-02T13:09:06;19.23;;;11.65;;
9306;SDS011;4691;47.612;7.610;2023-05-02T13:11:32;16.15;;;11.88;;
9306;SDS011;4691;47.612;7.610;2023-05-02T13:13:57;16.20;;;11.20;;
9306;SDS011;4691;47.612;7.610;2023-05-02T13:16:25;12.93;;;10.18;;
9306;SDS011;4691;47.612;7.610;2023-05-02T13:18:50;11.18;;;8.77;;
9306;SDS011;4691;47.612;7.610;2023-05-02T13:21:16;12.10;;;9.95;;
9306;SDS011;4691;47.612;7.610;2023-05-02T13:23:41;15.50;;;11.05;;
9306;SDS011;4691;47.612;7.610;2023-05-02T13:26:08;10.52;;;9.10;;
9306;SDS011;4691;47.612;7.610;2023-05-02T13:28:33;9.93;;;8.52;;
9306;SDS011;4691;47.612;7.610;2023-05-02T13:31:01;13.60;;;8.45;;
9306;SDS011;4691;47.612;7.610;2023-05-02T13:33:26;12.60;;;9.90;;
9306;SDS011;4691;47.612;7.610;2023-05-02T13:35:51;10.60;;;8.13;;
9306;SDS011;4691;47.612;7.610;2023-05-02T13:38:17;11.10;;;9.55;;
9306;SDS011;4691;47.612;7.610;2023-05-02T13:40:42;11.23;;;8.75;;
9306;SDS011;4691;47.612;7.610;2023-05-02T13:43:07;10.95;;;7.63;;
9306;SDS011;4691;47.612;7.610;2023-05-02T13:45:33;12.20;;;8.52;;
9306;SDS011;4691;47.612;7.610;2023-05-02T13:47:58;11.65;;;8.85;;
9306;SDS011;4691;47.612;7.610;2023-05-02T13:50:23;12.10;;;9.52;;
9306;SDS011;4691;47.612;7.610;2023-05-02T13:52:48;11.25;;;8.60;;
9306;SDS011;4691;47.612;7.610;2023-05-02T13:55:14;11.70;;;8.98;;
9306;SDS011;4691;47.612;7.610;2023-05-02T13:57:39;12.73;;;8.15;;
9306;SDS011;4691;47.612;7.610;2023-05-02T14:00:05;11.65;;;8.32;;
9306;SDS011;4691;47.612;7.610;2023-05-02T14:02:33;9.02;;;7.50;;
9306;SDS011;4691;47.612;7.610;2023-05-02T14:04:59;10.32;;;7.70;;
9306;SDS011;4691;47.612;7.610;2023-05-02T14:07:24;12.43;;;8.32;;
9306;SDS011;4691;47.612;7.610;2023-05-02T14:09:49;8.23;;;6.38;;
9306;SDS011;4691;47.612;7.610;2023-05-02T14:12:15;9.63;;;7.03;;
9306;SDS011;4691;47.612;7.610;2023-05-02T14:14:40;11.18;;;8.50;;
9306;SDS011;4691;47.612;7.610;2023-05-02T14:17:05;13.60;;;8.50;;
9306;SDS011;4691;47.612;7.610;2023-05-02T14:19:31;12.85;;;8.25;;
9306;SDS011;4691;47.612;7.610;2023-05-02T14:21:56;12.80;;;8.65;;
9306;SDS011;4691;47.612;7.610;2023-05-02T14:24:22;14.85;;;10.23;;
9306;SDS011;4691;47.612;7.610;2023-05-02T14:26:47;10.40;;;8.57;;
9306;SDS011;4691;47.612;7.610;2023-05-02T14:29:12;9.20;;;7.10;;
9306;SDS011;4691;47.612;7.610;2023-05-02T14:31:37;9.15;;;6.90;;
9306;SDS011;4691;47.612;7.610;2023-05-02T14:34:03;9.52;;;7.05;;
9306;SDS011;4691;47.612;7.610;2023-05-02T14:36:28;9.10;;;6.43;;
9306;SDS011;4691;47.612;7.610;2023-05-02T14:38:53;10.45;;;7.90;;
9306;SDS011;4691;47.612;7.610;2023-05-02T14:41:19;8.88;;;6.72;;
9306;SDS011;4691;47.612;7.610;2023-05-02T14:43:45;10.20;;;7.28;;
9306;SDS011;4691;47.612;7.610;2023-05-02T14:46:10;10.35;;;7.38;;
9306;SDS011;4691;47.612;7.610;2023-05-02T14:48:36;9.40;;;6.93;;
9306;SDS011;4691;47.612;7.610;2023-05-02T14:51:02;12.40;;;6.88;;
9306;SDS011;4691;47.612;7.610;2023-05-02T14:53:28;8.63;;;5.72;;
9306;SDS011;4691;47.612;7.610;2023-05-02T14:55:53;9.20;;;5.90;;
9306;SDS011;4691;47.612;7.610;2023-05-02T14:58:18;6.60;;;5.32;;
9306;SDS011;4691;47.612;7.610;2023-05-02T15:00:44;7.28;;;5.60;;
9306;SDS011;4691;47.612;7.610;2023-05-02T15:03:10;9.57;;;5.53;;
9306;SDS011;4691;47.612;7.610;2023-05-02T15:05:36;9.13;;;7.10;;
9306;SDS011;4691;47.612;7.610;2023-05-02T15:08:01;8.02;;;6.78;;
9306;SDS011;4691;47.612;7.610;2023-05-02T15:10:26;11.43;;;6.35;;
9306;SDS011;4691;47.612;7.610;2023-05-02T15:12:52;10.40;;;6.82;;
9306;SDS011;4691;47.612;7.610;2023-05-02T15:15:17;9.35;;;6.80;;
9306;SDS011;4691;47.612;7.610;2023-05-02T15:17:44;13.68;;;7.70;;
9306;SDS011;4691;47.612;7.610;2023-05-02T15:20:09;20.60;;;7.63;;
9306;SDS011;4691;47.612;7.610;2023-05-02T15:22:35;11.40;;;7.38;;
9306;SDS011;4691;47.612;7.610;2023-05-02T15:25:01;11.88;;;7.50;;
9306;SDS011;4691;47.612;7.610;2023-05-02T15:27:26;13.07;;;8.75;;
9306;SDS011;4691;47.612;7.610;2023-05-02T15:29:51;12.98;;;8.55;;
9306;SDS011;4691;47.612;7.610;2023-05-02T15:32:16;12.07;;;8.07;;
9306;SDS011;4691;47.612;7.610;2023-05-02T15:34:42;12.70;;;7.32;;
9306;SDS011;4691;47.612;7.610;2023-05-02T15:37:07;9.25;;;7.57;;
9306;SDS011;4691;47.612;7.610;2023-05-02T15:39:32;12.60;;;8.25;;
9306;SDS011;4691;47.612;7.610;2023-05-02T15:42:01;16.50;;;8.30;;
9306;SDS011;4691;47.612;7.610;2023-05-02T15:44:28;13.57;;;8.43;;